Search for airport 
image banner adimage banner adimage banner ad
image banner ad

MDER - El Ranchito

Located in , Dominican Republic

ICAO - , IATA -

Data provided by Airmate  

General information

Coordinates: N19°11'4" W70°21'59"
Elevation is feet MSL.
 
View others Airports in La Vega Province

Operational data

Special qualification required
Current time UTC:
Current local time:
Weather at : MDST - Cibao Intl Airport ( 35 km )
METAR: MDST 290900Z 00000KT 9999 SCT016 23/22 Q1016
TAF: TAF MDST 290400Z 2906/3006 00000KT 9999 SCT020 PROB30 2906/2912 7000-TSRA FEW014CB BKN016
View NOTAMs / SUP AIP / TFR affecting this airport [VIEW]
Communications frequencies: [VIEW]

Runways:

RWY identifierQFULength (ft)Width (ft)SurfaceLDA (ft)
1000
2800

Airport contact information

Address: Dominican Republic

Satellite view of MDER